Trans Friendship I — VRFY5 — position and weather

sailwx.info

Track history (hours):
 
Tides and Currents Weather Stations Pressure Air Temp Water Temp Dewpoint Dewpoint Depression Visibility Wind Speed Wind Dir Waves Ship Positions

Trans Friendship I

Last reported at 2018-Apr-14 14:16 UTC. Time now 2018-Apr-19 23:30 UTC.
Position N 34°16' E 138°39'.

Length 178 m; draft 9.9 m.

Type: Cargo ship. MMSI: 477851700.

Date/timePositionNaut miles runAvg speedWind from/ knotsBaromVisibWave heightAir tempDewpointWater temp
2018-Apr-14 14:16N 34°16' E 138°39'4 9.7
2018-Apr-14 13:50N 34°19' E 138°43'9 9.5
2018-Apr-14 12:53N 34°24' E 138°52'4 9.6
2018-Apr-14 12:30N 34°27' E 138°55'5 9.7
2018-Apr-14 12:00N 34°30' E 138°59'5 9.3
2018-Apr-14 11:30N 34°33' E 139°03'4 9.2
2018-Apr-14 11:00N 34°37' E 139°06'5 9.2
2018-Apr-14 10:29N 34°41' E 139°09'5 8.9
2018-Apr-14 09:58N 34°45' E 139°13'4 9.6
2018-Apr-14 09:30N 34°48' E 139°16'5 9.6
2018-Apr-14 09:00N 34°52' E 139°20'6 9.5
2018-Apr-14 08:19N 34°56' E 139°27'3 9.6
2018-Apr-14 08:00N 34°58' E 139°29'5 9.6
2018-Apr-14 07:29N 35°00' E 139°34'5 9.6
2018-Apr-14 07:00N 35°03' E 139°39'510.6
2018-Apr-14 06:30N 35°06' E 139°45'510.4
2018-Apr-14 06:00N 35°11' E 139°46'5 9.1
2018-Apr-14 05:31N 35°15' E 139°46'5 9.8
2018-Apr-14 05:00N 35°20' E 139°43'5 9.6
2018-Apr-14 04:31N 35°24' E 139°43'4 7.9
2018-Apr-14 04:00N 35°24' E 139°48'3 6.6
2018-Apr-14 03:31N 35°22' E 139°51'0 0.0
2018-Apr-14 03:00N 35°22' E 139°51'0 0.0
2018-Apr-14 02:27N 35°22' E 139°51'0 0.0
2018-Apr-14 02:00N 35°22' E 139°51'0 0.0
2018-Apr-14 01:30N 35°22' E 139°51'0 0.0
2018-Apr-14 01:00N 35°22' E 139°51'0 0.0
2018-Apr-14 00:30N 35°22' E 139°51'0 0.0
2018-Apr-13 23:54N 35°22' E 139°51'0 0.0
2018-Apr-13 23:30N 35°22' E 139°51'0 0.0
2018-Apr-13 23:00N 35°22' E 139°51'0 0.0
2018-Apr-13 22:30N 35°22' E 139°51'0 0.0
2018-Apr-13 21:54N 35°22' E 139°51'0 0.0
2018-Apr-13 21:30N 35°22' E 139°51'0 0.0
2018-Apr-13 20:57N 35°22' E 139°51'0 0.0
2018-Apr-13 20:27N 35°22' E 139°51'0 0.0
2018-Apr-13 20:00N 35°22' E 139°51'0 0.0
2018-Apr-13 19:30N 35°22' E 139°51'0 0.0
2018-Apr-13 18:57N 35°22' E 139°51'0 0.0
2018-Apr-13 18:30N 35°22' E 139°51'0 0.0
2018-Apr-13 18:00N 35°22' E 139°51'0 0.0
2018-Apr-13 17:30N 35°22' E 139°51'0 0.0
2018-Apr-13 17:00N 35°22' E 139°51'0 0.0
2018-Apr-13 16:30N 35°22' E 139°51'0 0.0
2018-Apr-13 16:00N 35°22' E 139°51'0 0.0
2018-Apr-13 15:30N 35°22' E 139°51'0 0.0
2018-Apr-13 15:00N 35°22' E 139°51'0 0.0
2018-Apr-13 14:30N 35°22' E 139°51'0 0.0
2018-Apr-13 13:57N 35°22' E 139°51'0 0.0
2018-Apr-13 13:30N 35°22' E 139°51'0 0.0
2018-Apr-13 13:00N 35°22' E 139°51'0 0.0
2018-Apr-13 12:27N 35°22' E 139°51'0 0.0
2018-Apr-13 12:00N 35°22' E 139°51'0 0.0
2018-Apr-13 11:30N 35°22' E 139°51'0 0.0
2018-Apr-13 11:00N 35°22' E 139°51'0 0.0
2018-Apr-13 10:30N 35°22' E 139°51'0 0.0
2018-Apr-13 10:00N 35°22' E 139°51'0 0.0
2018-Apr-13 09:27N 35°22' E 139°51'0 0.0
2018-Apr-13 08:57N 35°22' E 139°51'0 0.0
2018-Apr-13 08:30N 35°22' E 139°51'0 0.0
2018-Apr-13 08:00N 35°22' E 139°51'0 0.0
2018-Apr-13 07:30N 35°22' E 139°51'0 0.0
2018-Apr-13 07:00N 35°22' E 139°51'0 0.0
2018-Apr-13 06:30N 35°22' E 139°51'0 0.0
2018-Apr-13 06:00N 35°22' E 139°51'0 0.0
2018-Apr-13 05:27N 35°22' E 139°51'0 0.0
2018-Apr-13 05:00N 35°22' E 139°51'0 0.0
2018-Apr-13 04:30N 35°22' E 139°51'0 0.0
2018-Apr-13 04:00N 35°22' E 139°51'0 0.0
2018-Apr-13 03:30N 35°22' E 139°51'0 0.0
2018-Apr-13 03:00N 35°22' E 139°51'0 0.0
2018-Apr-13 02:30N 35°22' E 139°51'0 0.0
2018-Apr-13 02:01N 35°22' E 139°51'0 0.0
2018-Apr-13 01:27N 35°22' E 139°51'0 0.0
2018-Apr-13 01:00N 35°22' E 139°51'0 0.0
2018-Apr-13 00:30N 35°22' E 139°51'0 0.0
2018-Apr-13 00:00N 35°22' E 139°51'0 0.0
2018-Apr-12 23:30N 35°22' E 139°51'0 0.0
2018-Apr-12 23:00N 35°22' E 139°51'0 0.0
2018-Apr-12 22:30N 35°22' E 139°51'0 0.0
2018-Apr-12 22:00N 35°22' E 139°51'0 0.0
2018-Apr-12 21:31N 35°22' E 139°51'0 0.0
2018-Apr-12 20:57N 35°22' E 139°51'0 0.0
2018-Apr-12 20:30N 35°22' E 139°51'0 0.0
2018-Apr-12 19:57N 35°22' E 139°51'0 0.0
2018-Apr-12 19:30N 35°22' E 139°51'0 0.0
2018-Apr-12 19:00N 35°22' E 139°51'0 0.0
2018-Apr-12 18:30N 35°22' E 139°51'0 0.0
2018-Apr-12 18:00N 35°22' E 139°51'0 0.0
2018-Apr-12 17:30N 35°22' E 139°51'0 0.0
2018-Apr-12 17:00N 35°22' E 139°51'0 0.0
2018-Apr-12 16:30N 35°22' E 139°51'0 0.0
2018-Apr-12 16:00N 35°22' E 139°51'0 0.0
2018-Apr-12 15:30N 35°22' E 139°51'0 0.0
2018-Apr-12 15:00N 35°22' E 139°51'0 0.0
2018-Apr-12 14:30N 35°22' E 139°51'0 0.0
2018-Apr-12 14:00N 35°22' E 139°51'0 0.0
2018-Apr-12 13:31N 35°22' E 139°51'0 0.0
2018-Apr-12 13:00N 35°22' E 139°51'0 0.0
2018-Apr-12 12:30N 35°22' E 139°51'0 0.0
2018-Apr-12 12:00N 35°22' E 139°51'0 0.0
2018-Apr-12 11:30N 35°22' E 139°51'0 0.0
2018-Apr-12 11:00N 35°22' E 139°51'0 0.0
2018-Apr-12 10:27N 35°22' E 139°51'0 0.0
2018-Apr-12 10:00N 35°22' E 139°51'0 0.0
2018-Apr-12 09:30N 35°22' E 139°51'0 0.0
2018-Apr-12 09:01N 35°22' E 139°51'0 0.0
2018-Apr-12 08:30N 35°22' E 139°51'0 0.0
2018-Apr-12 08:00N 35°22' E 139°51'0 0.0
2018-Apr-12 07:30N 35°22' E 139°51'0 0.0
2018-Apr-12 07:00N 35°22' E 139°51'0 0.0
2018-Apr-12 06:30N 35°22' E 139°51'0 0.0
2018-Apr-12 06:00N 35°22' E 139°51'0 0.0
2018-Apr-12 05:30N 35°22' E 139°51'0 0.0
2018-Apr-12 04:57N 35°22' E 139°51'0 0.0
2018-Apr-12 04:30N 35°22' E 139°51'0 0.0
2018-Apr-12 04:00N 35°22' E 139°51'0 0.0
2018-Apr-12 03:30N 35°22' E 139°51'0 0.0
2018-Apr-12 03:00N 35°22' E 139°51'0 0.0
2018-Apr-12 02:30N 35°22' E 139°51'0 0.0
2018-Apr-12 02:00N 35°22' E 139°51'0 0.0
2018-Apr-12 01:30N 35°22' E 139°51'0 0.0
2018-Apr-12 01:00N 35°22' E 139°51'0 0.0
2018-Apr-12 00:30N 35°22' E 139°51'0 0.0
2018-Apr-12 00:00N 35°22' E 139°51'0 0.0
2018-Apr-11 23:30N 35°22' E 139°51'0 0.0
2018-Apr-11 23:00N 35°22' E 139°51'0 0.0
2018-Apr-11 22:30N 35°22' E 139°51'0 0.0
2018-Apr-11 22:00N 35°22' E 139°51'0 0.0
2018-Apr-11 21:30N 35°22' E 139°51'0 0.0
2018-Apr-11 20:57N 35°22' E 139°51'0 0.0
2018-Apr-11 20:31N 35°22' E 139°51'2 3.8
2018-Apr-11 20:00N 35°23' E 139°49'3 7.0
2018-Apr-11 19:30N 35°21' E 139°45'510.2
2018-Apr-11 19:00N 35°16' E 139°46'611.0
2018-Apr-11 18:31N 35°11' E 139°47'4 8.1
2018-Apr-11 18:00N 35°07' E 139°47'5 9.7
2018-Apr-11 17:30N 35°02' E 139°45'611.9
2018-Apr-11 16:59N 34°56' E 139°44'510.2
2018-Apr-11 16:30N 34°52' E 139°48'510.3
2018-Apr-11 16:00N 34°49' E 139°52'16 6.7
2018-Apr-11 13:40N 34°39' E 140°07'17 4.3
2018-Apr-11 09:44N 34°34' E 139°47'1 3.9
2018-Apr-11 09:30N 34°34' E 139°46'4 4.4
2018-Apr-11 08:36N 34°32' E 139°42'1 4.7
2018-Apr-11 08:30N 34°32' E 139°41'3 4.7
2018-Apr-11 07:58N 34°31' E 139°38'3 7.2
2018-Apr-11 07:30N 34°33' E 139°34'1713.5
2018-Apr-11 06:13N 34°41' E 139°16'610.9
2018-Apr-11 05:43N 34°42' E 139°09'314.7
2018-Apr-11 05:30N 34°39' E 139°07'815.2
2018-Apr-11 04:59N 34°32' E 139°02'714.8
2018-Apr-11 04:30N 34°27' E 138°56'814.7
2018-Apr-11 03:59N 34°23' E 138°49'1014.4
2018-Apr-11 03:19N 34°17' E 138°39'514.3
2018-Apr-11 02:59N 34°14' E 138°35'814.3
2018-Apr-11 02:27N 34°09' E 138°28'614.1
2018-Apr-11 02:00N 34°05' E 138°22'  
2018-Apr-08 09:06N 30°59' E 122°32'111.5
2018-Apr-08 09:00N 30°59' E 122°31'611.6
2018-Apr-08 08:30N 31°01' E 122°25'611.7
2018-Apr-08 07:59N 31°02' E 122°18'510.5
2018-Apr-08 07:31N 31°02' E 122°12'510.6
2018-Apr-08 07:00N 31°04' E 122°06'510.7
2018-Apr-08 06:30N 31°05' E 122°00'4 8.6
2018-Apr-08 06:00N 31°07' E 121°56'713.8
2018-Apr-08 05:30N 31°12' E 121°50'2310.8
2018-Apr-08 03:25N 31°26' E 121°29'511.8
2018-Apr-08 03:00N 31°30' E 121°26'12 9.2
2018-Apr-08 01:45N 31°30' E 121°39'311.6
2018-Apr-08 01:30N 31°31' E 121°36'612.9
2018-Apr-08 01:00N 31°34' E 121°30'3 5.9
2018-Apr-08 00:30N 31°36' E 121°27'0 0.0
2018-Apr-07 23:55N 31°36' E 121°27'0 0.0
2018-Apr-07 23:28N 31°36' E 121°27'0 0.0
2018-Apr-07 22:55N 31°36' E 121°27'0 0.0
2018-Apr-07 22:29N 31°36' E 121°27'0 0.0
2018-Apr-07 21:59N 31°36' E 121°27'0 0.0
2018-Apr-07 21:29N 31°36' E 121°27'0 0.0
2018-Apr-07 20:59N 31°36' E 121°27'0 0.0
2018-Apr-07 20:29N 31°36' E 121°27'0 0.0
2018-Apr-07 19:59N 31°36' E 121°27'0 0.0
2018-Apr-07 19:29N 31°36' E 121°27'0 0.0
2018-Apr-07 18:59N 31°36' E 121°27'0 0.0
2018-Apr-07 18:29N 31°36' E 121°27'0 0.0
2018-Apr-07 17:59N 31°36' E 121°27'0 0.0
2018-Apr-07 17:29N 31°36' E 121°27'0 0.0
2018-Apr-07 16:59N 31°36' E 121°27'0 0.0
2018-Apr-07 16:29N 31°36' E 121°27'0 0.0
2018-Apr-07 15:59N 31°36' E 121°27'0 0.0
2018-Apr-07 15:29N 31°36' E 121°27'0 0.0
2018-Apr-07 14:59N 31°36' E 121°27'0 0.0
2018-Apr-07 14:29N 31°36' E 121°27'0 0.0
2018-Apr-07 13:14N 31°36' E 121°27'0 0.0
2018-Apr-07 10:29N 31°36' E 121°27'0 0.0
2018-Apr-07 09:59N 31°36' E 121°27'0 0.0
2018-Apr-07 09:29N 31°36' E 121°27'0 0.0
2018-Apr-07 08:59N 31°36' E 121°27'0 0.0
2018-Apr-07 08:17N 31°36' E 121°27'0 0.0
2018-Apr-07 07:59N 31°36' E 121°27'0 0.0
2018-Apr-07 07:26N 31°36' E 121°27'0 0.0
2018-Apr-07 06:59N 31°36' E 121°27'0 0.0
2018-Apr-07 06:29N 31°36' E 121°27'0 0.0
2018-Apr-07 05:59N 31°36' E 121°27'0 0.0
2018-Apr-07 05:26N 31°36' E 121°27'0 0.0
2018-Apr-07 04:59N 31°36' E 121°27'0 0.0
2018-Apr-07 04:29N 31°36' E 121°27'0 0.0
2018-Apr-07 03:59N 31°36' E 121°27'0 0.0
2018-Apr-07 03:29N 31°36' E 121°27'0 0.0
2018-Apr-07 02:59N 31°36' E 121°27'0 0.0
2018-Apr-07 02:29N 31°36' E 121°27'0 0.0
2018-Apr-07 01:59N 31°36' E 121°27'0 0.0
2018-Apr-07 01:29N 31°36' E 121°27'0 0.0
2018-Apr-07 00:59N 31°36' E 121°27'0 0.0
2018-Apr-07 00:29N 31°36' E 121°27'0 0.0
2018-Apr-06 23:59N 31°36' E 121°27'0 0.0
2018-Apr-06 23:29N 31°36' E 121°27'0 0.0
2018-Apr-06 22:59N 31°36' E 121°27'0 0.0
2018-Apr-06 22:29N 31°36' E 121°27'0 0.0
2018-Apr-06 21:59N 31°36' E 121°27'0 0.0
2018-Apr-06 21:29N 31°36' E 121°27'0 0.0
2018-Apr-06 20:59N 31°36' E 121°27'0 0.0
2018-Apr-06 20:29N 31°36' E 121°27'0 0.0
2018-Apr-06 19:59N 31°36' E 121°27'0 0.0
2018-Apr-06 19:29N 31°36' E 121°27'0 0.0
2018-Apr-06 18:59N 31°36' E 121°27'0 0.0
2018-Apr-06 18:29N 31°36' E 121°27'0 0.0
2018-Apr-06 17:35N 31°36' E 121°27'0 0.0
2018-Apr-06 17:29N 31°36' E 121°27'0 0.0
2018-Apr-06 16:59N 31°36' E 121°27'0 0.0
2018-Apr-06 16:17N 31°36' E 121°27'0 0.0
2018-Apr-06 15:59N 31°36' E 121°27'0 0.0
2018-Apr-06 15:29N 31°36' E 121°27'0 0.0
2018-Apr-06 14:59N 31°36' E 121°27'0 0.0
2018-Apr-06 14:29N 31°36' E 121°27'0 0.0
2018-Apr-06 13:59N 31°36' E 121°27'0 0.0
2018-Apr-06 13:23N 31°36' E 121°27'0 0.0
2018-Apr-06 12:59N 31°36' E 121°27'0 0.0
2018-Apr-06 12:29N 31°36' E 121°27'0 0.0
2018-Apr-06 11:35N 31°36' E 121°27'0 0.0
2018-Apr-06 11:29N 31°36' E 121°27'0 0.0
2018-Apr-06 10:59N 31°36' E 121°27'0 0.0
2018-Apr-06 10:23N 31°36' E 121°27'0 0.0
2018-Apr-06 09:59N 31°36' E 121°27'0 0.0
2018-Apr-06 09:29N 31°36' E 121°27'0 0.0
2018-Apr-06 08:59N 31°36' E 121°27'0 0.0
2018-Apr-06 08:29N 31°36' E 121°27'0 0.0
2018-Apr-06 07:59N 31°36' E 121°27'0 0.0
2018-Apr-06 07:29N 31°36' E 121°27'0 0.0
2018-Apr-06 06:59N 31°36' E 121°27'0 0.0
2018-Apr-06 06:29N 31°36' E 121°27'0 0.0
2018-Apr-06 05:59N 31°36' E 121°27'0 0.0
2018-Apr-06 05:29N 31°36' E 121°27'0 0.0
2018-Apr-06 04:59N 31°36' E 121°27'0 0.0
2018-Apr-06 04:26N 31°36' E 121°27'0 0.0
2018-Apr-06 03:59N 31°36' E 121°27'0 0.0
2018-Apr-06 03:29N 31°36' E 121°27'0 0.0
2018-Apr-06 02:59N 31°36' E 121°27'0 0.0
2018-Apr-06 02:29N 31°36' E 121°27'0 0.0
2018-Apr-06 01:59N 31°36' E 121°27'0 0.0
2018-Apr-06 01:29N 31°36' E 121°27'0 0.0
2018-Apr-06 00:59N 31°36' E 121°27'0 0.0
2018-Apr-06 00:29N 31°36' E 121°27'0 0.0
2018-Apr-05 23:59N 31°36' E 121°27'0 0.0
2018-Apr-05 23:29N 31°36' E 121°27'0 0.0
2018-Apr-05 22:59N 31°36' E 121°27'0 0.0
2018-Apr-05 22:29N 31°36' E 121°27'0 0.0
2018-Apr-05 21:59N 31°36' E 121°27'0 0.0
2018-Apr-05 21:29N 31°36' E 121°27'0 0.0
2018-Apr-05 20:59N 31°36' E 121°27'0 0.0
2018-Apr-05 20:29N 31°36' E 121°27'0 0.0
2018-Apr-05 19:59N 31°36' E 121°27'0 0.0
2018-Apr-05 19:29N 31°36' E 121°27'0 0.0
2018-Apr-05 18:59N 31°36' E 121°27'0 0.0
2018-Apr-05 18:29N 31°36' E 121°27'0 0.0
2018-Apr-05 17:59N 31°36' E 121°27'0 0.0
2018-Apr-05 17:29N 31°36' E 121°27'0 0.0
2018-Apr-05 16:59N 31°36' E 121°27'0 0.0
2018-Apr-05 16:29N 31°36' E 121°27'0 0.0
2018-Apr-05 15:59N 31°36' E 121°27'0 0.0
2018-Apr-05 15:29N 31°36' E 121°27'0 0.0
2018-Apr-05 14:59N 31°36' E 121°27'0 0.0
2018-Apr-05 14:29N 31°36' E 121°27'0 0.0
2018-Apr-05 13:59N 31°36' E 121°27'0 0.0
2018-Apr-05 13:29N 31°36' E 121°27'0 0.0
2018-Apr-05 12:59N 31°36' E 121°27'0 0.0
2018-Apr-05 12:29N 31°36' E 121°27'0 0.0
2018-Apr-05 11:59N 31°36' E 121°27'0 0.0
2018-Apr-05 11:29N 31°36' E 121°27'0 0.0
2018-Apr-05 10:59N 31°36' E 121°27'0 0.0
2018-Apr-05 10:29N 31°36' E 121°27'0 0.0
2018-Apr-05 09:59N 31°36' E 121°27'0 0.0
2018-Apr-05 09:29N 31°36' E 121°27'0 0.0
2018-Apr-05 08:59N 31°36' E 121°27'0 0.0
2018-Apr-05 08:29N 31°36' E 121°27'0 0.0
2018-Apr-05 07:59N 31°36' E 121°27'0 0.0
2018-Apr-05 07:29N 31°36' E 121°27'0 0.0
2018-Apr-05 06:59N 31°36' E 121°27'0 0.0
2018-Apr-05 06:29N 31°36' E 121°27'0 0.0
2018-Apr-05 05:59N 31°36' E 121°27'0 0.0
2018-Apr-05 05:29N 31°36' E 121°27'0 0.0
2018-Apr-05 04:56N 31°36' E 121°27'0 0.0
2018-Apr-05 04:29N 31°36' E 121°27'0 0.0
2018-Apr-05 03:59N 31°36' E 121°27'0 0.0
2018-Apr-05 03:23N 31°36' E 121°27'0 0.0
2018-Apr-05 02:59N 31°36' E 121°27'0 0.0
2018-Apr-05 02:29N 31°36' E 121°27'0 0.0
2018-Apr-05 01:59N 31°36' E 121°27'0 0.0
2018-Apr-05 01:29N 31°36' E 121°27'0 0.0
2018-Apr-05 00:59N 31°36' E 121°27'0 0.0
2018-Apr-05 00:29N 31°36' E 121°27'0 0.0
2018-Apr-04 23:59N 31°36' E 121°27'0 0.0
2018-Apr-04 23:29N 31°36' E 121°27'0 0.0
2018-Apr-04 22:59N 31°36' E 121°27'0 0.0
2018-Apr-04 22:29N 31°36' E 121°27'0 0.0
2018-Apr-04 21:59N 31°36' E 121°27'0 0.0
2018-Apr-04 21:29N 31°36' E 121°27'0 0.0
2018-Apr-04 20:59N 31°36' E 121°27'0 0.0
2018-Apr-04 20:29N 31°36' E 121°27'0 0.0
2018-Apr-04 19:59N 31°36' E 121°27'0 0.0
2018-Apr-04 19:29N 31°36' E 121°27'0 0.0
2018-Apr-04 18:59N 31°36' E 121°27'0 0.0
2018-Apr-04 18:29N 31°36' E 121°27'0 0.0
2018-Apr-04 17:59N 31°36' E 121°27'0 0.0
2018-Apr-04 17:29N 31°36' E 121°27'0 0.0
2018-Apr-04 16:59N 31°36' E 121°27'0 0.0
2018-Apr-04 16:23N 31°36' E 121°27'0 0.0
2018-Apr-04 15:59N 31°36' E 121°27'0 0.0
2018-Apr-04 15:29N 31°36' E 121°27'0 0.0
2018-Apr-04 14:59N 31°36' E 121°27'0 0.0
2018-Apr-04 14:26N 31°36' E 121°27'  
Track history (hours):
 
Tides and Currents Weather Stations Pressure Air Temp Water Temp Dewpoint Dewpoint Depression Visibility Wind Speed Wind Dir Waves Ship Positions

Trans Friendship I

Last reported at 2018-Apr-14 14:16 UTC. Time now 2018-Apr-19 23:30 UTC.
Position N 34°16' E 138°39'.

Length 178 m; draft 9.9 m.

Type: Cargo ship. MMSI: 477851700.

Date/timePositionNaut miles runAvg speedWind from/ knotsBaromVisibWave heightAir tempDewpointWater temp
2018-Apr-14 14:16N 34°16' E 138°39'4 9.7
2018-Apr-14 13:50N 34°19' E 138°43'9 9.5
2018-Apr-14 12:53N 34°24' E 138°52'4 9.6
2018-Apr-14 12:30N 34°27' E 138°55'5 9.7
2018-Apr-14 12:00N 34°30' E 138°59'5 9.3
2018-Apr-14 11:30N 34°33' E 139°03'4 9.2
2018-Apr-14 11:00N 34°37' E 139°06'5 9.2
2018-Apr-14 10:29N 34°41' E 139°09'5 8.9
2018-Apr-14 09:58N 34°45' E 139°13'4 9.6
2018-Apr-14 09:30N 34°48' E 139°16'5 9.6
2018-Apr-14 09:00N 34°52' E 139°20'6 9.5
2018-Apr-14 08:19N 34°56' E 139°27'3 9.6
2018-Apr-14 08:00N 34°58' E 139°29'5 9.6
2018-Apr-14 07:29N 35°00' E 139°34'5 9.6
2018-Apr-14 07:00N 35°03' E 139°39'510.6
2018-Apr-14 06:30N 35°06' E 139°45'510.4
2018-Apr-14 06:00N 35°11' E 139°46'5 9.1
2018-Apr-14 05:31N 35°15' E 139°46'5 9.8
2018-Apr-14 05:00N 35°20' E 139°43'5 9.6
2018-Apr-14 04:31N 35°24' E 139°43'4 7.9
2018-Apr-14 04:00N 35°24' E 139°48'3 6.6
2018-Apr-14 03:31N 35°22' E 139°51'0 0.0
2018-Apr-14 03:00N 35°22' E 139°51'0 0.0
2018-Apr-14 02:27N 35°22' E 139°51'0 0.0
2018-Apr-14 02:00N 35°22' E 139°51'0 0.0
2018-Apr-14 01:30N 35°22' E 139°51'0 0.0
2018-Apr-14 01:00N 35°22' E 139°51'0 0.0
2018-Apr-14 00:30N 35°22' E 139°51'0 0.0
2018-Apr-13 23:54N 35°22' E 139°51'0 0.0
2018-Apr-13 23:30N 35°22' E 139°51'0 0.0
2018-Apr-13 23:00N 35°22' E 139°51'0 0.0
2018-Apr-13 22:30N 35°22' E 139°51'0 0.0
2018-Apr-13 21:54N 35°22' E 139°51'0 0.0
2018-Apr-13 21:30N 35°22' E 139°51'0 0.0
2018-Apr-13 20:57N 35°22' E 139°51'0 0.0
2018-Apr-13 20:27N 35°22' E 139°51'0 0.0
2018-Apr-13 20:00N 35°22' E 139°51'0 0.0
2018-Apr-13 19:30N 35°22' E 139°51'0 0.0
2018-Apr-13 18:57N 35°22' E 139°51'0 0.0
2018-Apr-13 18:30N 35°22' E 139°51'0 0.0
2018-Apr-13 18:00N 35°22' E 139°51'0 0.0
2018-Apr-13 17:30N 35°22' E 139°51'0 0.0
2018-Apr-13 17:00N 35°22' E 139°51'0 0.0
2018-Apr-13 16:30N 35°22' E 139°51'0 0.0
2018-Apr-13 16:00N 35°22' E 139°51'0 0.0
2018-Apr-13 15:30N 35°22' E 139°51'0 0.0
2018-Apr-13 15:00N 35°22' E 139°51'0 0.0
2018-Apr-13 14:30N 35°22' E 139°51'0 0.0
2018-Apr-13 13:57N 35°22' E 139°51'0 0.0
2018-Apr-13 13:30N 35°22' E 139°51'0 0.0
2018-Apr-13 13:00N 35°22' E 139°51'0 0.0
2018-Apr-13 12:27N 35°22' E 139°51'0 0.0
2018-Apr-13 12:00N 35°22' E 139°51'0 0.0
2018-Apr-13 11:30N 35°22' E 139°51'0 0.0
2018-Apr-13 11:00N 35°22' E 139°51'0 0.0
2018-Apr-13 10:30N 35°22' E 139°51'0 0.0
2018-Apr-13 10:00N 35°22' E 139°51'0 0.0
2018-Apr-13 09:27N 35°22' E 139°51'0 0.0
2018-Apr-13 08:57N 35°22' E 139°51'0 0.0
2018-Apr-13 08:30N 35°22' E 139°51'0 0.0
2018-Apr-13 08:00N 35°22' E 139°51'0 0.0
2018-Apr-13 07:30N 35°22' E 139°51'0 0.0
2018-Apr-13 07:00N 35°22' E 139°51'0 0.0
2018-Apr-13 06:30N 35°22' E 139°51'0 0.0
2018-Apr-13 06:00N 35°22' E 139°51'0 0.0
2018-Apr-13 05:27N 35°22' E 139°51'0 0.0
2018-Apr-13 05:00N 35°22' E 139°51'0 0.0
2018-Apr-13 04:30N 35°22' E 139°51'0 0.0
2018-Apr-13 04:00N 35°22' E 139°51'0 0.0
2018-Apr-13 03:30N 35°22' E 139°51'0 0.0
2018-Apr-13 03:00N 35°22' E 139°51'0 0.0
2018-Apr-13 02:30N 35°22' E 139°51'0 0.0
2018-Apr-13 02:01N 35°22' E 139°51'0 0.0
2018-Apr-13 01:27N 35°22' E 139°51'0 0.0
2018-Apr-13 01:00N 35°22' E 139°51'0 0.0
2018-Apr-13 00:30N 35°22' E 139°51'0 0.0
2018-Apr-13 00:00N 35°22' E 139°51'0 0.0
2018-Apr-12 23:30N 35°22' E 139°51'0 0.0
2018-Apr-12 23:00N 35°22' E 139°51'0 0.0
2018-Apr-12 22:30N 35°22' E 139°51'0 0.0
2018-Apr-12 22:00N 35°22' E 139°51'0 0.0
2018-Apr-12 21:31N 35°22' E 139°51'0 0.0
2018-Apr-12 20:57N 35°22' E 139°51'0 0.0
2018-Apr-12 20:30N 35°22' E 139°51'0 0.0
2018-Apr-12 19:57N 35°22' E 139°51'0 0.0
2018-Apr-12 19:30N 35°22' E 139°51'0 0.0
2018-Apr-12 19:00N 35°22' E 139°51'0 0.0
2018-Apr-12 18:30N 35°22' E 139°51'0 0.0
2018-Apr-12 18:00N 35°22' E 139°51'0 0.0
2018-Apr-12 17:30N 35°22' E 139°51'0 0.0
2018-Apr-12 17:00N 35°22' E 139°51'0 0.0
2018-Apr-12 16:30N 35°22' E 139°51'0 0.0
2018-Apr-12 16:00N 35°22' E 139°51'0 0.0
2018-Apr-12 15:30N 35°22' E 139°51'0 0.0
2018-Apr-12 15:00N 35°22' E 139°51'0 0.0
2018-Apr-12 14:30N 35°22' E 139°51'0 0.0
2018-Apr-12 14:00N 35°22' E 139°51'0 0.0
2018-Apr-12 13:31N 35°22' E 139°51'0 0.0
2018-Apr-12 13:00N 35°22' E 139°51'0 0.0
2018-Apr-12 12:30N 35°22' E 139°51'0 0.0
2018-Apr-12 12:00N 35°22' E 139°51'0 0.0
2018-Apr-12 11:30N 35°22' E 139°51'0 0.0
2018-Apr-12 11:00N 35°22' E 139°51'0 0.0
2018-Apr-12 10:27N 35°22' E 139°51'0 0.0
2018-Apr-12 10:00N 35°22' E 139°51'0 0.0
2018-Apr-12 09:30N 35°22' E 139°51'0 0.0
2018-Apr-12 09:01N 35°22' E 139°51'0 0.0
2018-Apr-12 08:30N 35°22' E 139°51'0 0.0
2018-Apr-12 08:00N 35°22' E 139°51'0 0.0
2018-Apr-12 07:30N 35°22' E 139°51'0 0.0
2018-Apr-12 07:00N 35°22' E 139°51'0 0.0
2018-Apr-12 06:30N 35°22' E 139°51'0 0.0
2018-Apr-12 06:00N 35°22' E 139°51'0 0.0
2018-Apr-12 05:30N 35°22' E 139°51'0 0.0
2018-Apr-12 04:57N 35°22' E 139°51'0 0.0
2018-Apr-12 04:30N 35°22' E 139°51'0 0.0
2018-Apr-12 04:00N 35°22' E 139°51'0 0.0
2018-Apr-12 03:30N 35°22' E 139°51'0 0.0
2018-Apr-12 03:00N 35°22' E 139°51'0 0.0
2018-Apr-12 02:30N 35°22' E 139°51'0 0.0
2018-Apr-12 02:00N 35°22' E 139°51'0 0.0
2018-Apr-12 01:30N 35°22' E 139°51'0 0.0
2018-Apr-12 01:00N 35°22' E 139°51'0 0.0
2018-Apr-12 00:30N 35°22' E 139°51'0 0.0
2018-Apr-12 00:00N 35°22' E 139°51'0 0.0
2018-Apr-11 23:30N 35°22' E 139°51'0 0.0
2018-Apr-11 23:00N 35°22' E 139°51'0 0.0
2018-Apr-11 22:30N 35°22' E 139°51'0 0.0
2018-Apr-11 22:00N 35°22' E 139°51'0 0.0
2018-Apr-11 21:30N 35°22' E 139°51'0 0.0
2018-Apr-11 20:57N 35°22' E 139°51'0 0.0
2018-Apr-11 20:31N 35°22' E 139°51'2 3.8
2018-Apr-11 20:00N 35°23' E 139°49'3 7.0
2018-Apr-11 19:30N 35°21' E 139°45'510.2
2018-Apr-11 19:00N 35°16' E 139°46'611.0
2018-Apr-11 18:31N 35°11' E 139°47'4 8.1
2018-Apr-11 18:00N 35°07' E 139°47'5 9.7
2018-Apr-11 17:30N 35°02' E 139°45'611.9
2018-Apr-11 16:59N 34°56' E 139°44'510.2
2018-Apr-11 16:30N 34°52' E 139°48'510.3
2018-Apr-11 16:00N 34°49' E 139°52'16 6.7
2018-Apr-11 13:40N 34°39' E 140°07'17 4.3
2018-Apr-11 09:44N 34°34' E 139°47'1 3.9
2018-Apr-11 09:30N 34°34' E 139°46'4 4.4
2018-Apr-11 08:36N 34°32' E 139°42'1 4.7
2018-Apr-11 08:30N 34°32' E 139°41'3 4.7
2018-Apr-11 07:58N 34°31' E 139°38'3 7.2
2018-Apr-11 07:30N 34°33' E 139°34'1713.5
2018-Apr-11 06:13N 34°41' E 139°16'610.9
2018-Apr-11 05:43N 34°42' E 139°09'314.7
2018-Apr-11 05:30N 34°39' E 139°07'815.2
2018-Apr-11 04:59N 34°32' E 139°02'714.8
2018-Apr-11 04:30N 34°27' E 138°56'814.7
2018-Apr-11 03:59N 34°23' E 138°49'1014.4
2018-Apr-11 03:19N 34°17' E 138°39'514.3
2018-Apr-11 02:59N 34°14' E 138°35'814.3
2018-Apr-11 02:27N 34°09' E 138°28'614.1
2018-Apr-11 02:00N 34°05' E 138°22'  
2018-Apr-08 09:06N 30°59' E 122°32'111.5
2018-Apr-08 09:00N 30°59' E 122°31'611.6
2018-Apr-08 08:30N 31°01' E 122°25'611.7
2018-Apr-08 07:59N 31°02' E 122°18'510.5
2018-Apr-08 07:31N 31°02' E 122°12'510.6
2018-Apr-08 07:00N 31°04' E 122°06'510.7
2018-Apr-08 06:30N 31°05' E 122°00'4 8.6
2018-Apr-08 06:00N 31°07' E 121°56'713.8
2018-Apr-08 05:30N 31°12' E 121°50'2310.8
2018-Apr-08 03:25N 31°26' E 121°29'511.8
2018-Apr-08 03:00N 31°30' E 121°26'12 9.2
2018-Apr-08 01:45N 31°30' E 121°39'311.6
2018-Apr-08 01:30N 31°31' E 121°36'612.9
2018-Apr-08 01:00N 31°34' E 121°30'3 5.9
2018-Apr-08 00:30N 31°36' E 121°27'0 0.0
2018-Apr-07 23:55N 31°36' E 121°27'0 0.0
2018-Apr-07 23:28N 31°36' E 121°27'0 0.0
2018-Apr-07 22:55N 31°36' E 121°27'0 0.0
2018-Apr-07 22:29N 31°36' E 121°27'0 0.0
2018-Apr-07 21:59N 31°36' E 121°27'0 0.0
2018-Apr-07 21:29N 31°36' E 121°27'0 0.0
2018-Apr-07 20:59N 31°36' E 121°27'0 0.0
2018-Apr-07 20:29N 31°36' E 121°27'0 0.0
2018-Apr-07 19:59N 31°36' E 121°27'0 0.0
2018-Apr-07 19:29N 31°36' E 121°27'0 0.0
2018-Apr-07 18:59N 31°36' E 121°27'0 0.0
2018-Apr-07 18:29N 31°36' E 121°27'0 0.0
2018-Apr-07 17:59N 31°36' E 121°27'0 0.0
2018-Apr-07 17:29N 31°36' E 121°27'0 0.0
2018-Apr-07 16:59N 31°36' E 121°27'0 0.0
2018-Apr-07 16:29N 31°36' E 121°27'0 0.0
2018-Apr-07 15:59N 31°36' E 121°27'0 0.0
2018-Apr-07 15:29N 31°36' E 121°27'0 0.0
2018-Apr-07 14:59N 31°36' E 121°27'0 0.0
2018-Apr-07 14:29N 31°36' E 121°27'0 0.0
2018-Apr-07 13:14N 31°36' E 121°27'0 0.0
2018-Apr-07 10:29N 31°36' E 121°27'0 0.0
2018-Apr-07 09:59N 31°36' E 121°27'0 0.0
2018-Apr-07 09:29N 31°36' E 121°27'0 0.0
2018-Apr-07 08:59N 31°36' E 121°27'0 0.0
2018-Apr-07 08:17N 31°36' E 121°27'0 0.0
2018-Apr-07 07:59N 31°36' E 121°27'0 0.0
2018-Apr-07 07:26N 31°36' E 121°27'0 0.0
2018-Apr-07 06:59N 31°36' E 121°27'0 0.0
2018-Apr-07 06:29N 31°36' E 121°27'0 0.0
2018-Apr-07 05:59N 31°36' E 121°27'0 0.0
2018-Apr-07 05:26N 31°36' E 121°27'0 0.0
2018-Apr-07 04:59N 31°36' E 121°27'0 0.0
2018-Apr-07 04:29N 31°36' E 121°27'0 0.0
2018-Apr-07 03:59N 31°36' E 121°27'0 0.0
2018-Apr-07 03:29N 31°36' E 121°27'0 0.0
2018-Apr-07 02:59N 31°36' E 121°27'0 0.0
2018-Apr-07 02:29N 31°36' E 121°27'0 0.0
2018-Apr-07 01:59N 31°36' E 121°27'0 0.0
2018-Apr-07 01:29N 31°36' E 121°27'0 0.0
2018-Apr-07 00:59N 31°36' E 121°27'0 0.0
2018-Apr-07 00:29N 31°36' E 121°27'0 0.0
2018-Apr-06 23:59N 31°36' E 121°27'0 0.0
2018-Apr-06 23:29N 31°36' E 121°27'0 0.0
2018-Apr-06 22:59N 31°36' E 121°27'0 0.0
2018-Apr-06 22:29N 31°36' E 121°27'0 0.0
2018-Apr-06 21:59N 31°36' E 121°27'0 0.0
2018-Apr-06 21:29N 31°36' E 121°27'0 0.0
2018-Apr-06 20:59N 31°36' E 121°27'0 0.0
2018-Apr-06 20:29N 31°36' E 121°27'0 0.0
2018-Apr-06 19:59N 31°36' E 121°27'0 0.0
2018-Apr-06 19:29N 31°36' E 121°27'0 0.0
2018-Apr-06 18:59N 31°36' E 121°27'0 0.0
2018-Apr-06 18:29N 31°36' E 121°27'0 0.0
2018-Apr-06 17:35N 31°36' E 121°27'0 0.0
2018-Apr-06 17:29N 31°36' E 121°27'0 0.0
2018-Apr-06 16:59N 31°36' E 121°27'0 0.0
2018-Apr-06 16:17N 31°36' E 121°27'0 0.0
2018-Apr-06 15:59N 31°36' E 121°27'0 0.0
2018-Apr-06 15:29N 31°36' E 121°27'0 0.0
2018-Apr-06 14:59N 31°36' E 121°27'0 0.0
2018-Apr-06 14:29N 31°36' E 121°27'0 0.0
2018-Apr-06 13:59N 31°36' E 121°27'0 0.0
2018-Apr-06 13:23N 31°36' E 121°27'0 0.0
2018-Apr-06 12:59N 31°36' E 121°27'0 0.0
2018-Apr-06 12:29N 31°36' E 121°27'0 0.0
2018-Apr-06 11:35N 31°36' E 121°27'0 0.0
2018-Apr-06 11:29N 31°36' E 121°27'0 0.0
2018-Apr-06 10:59N 31°36' E 121°27'0 0.0
2018-Apr-06 10:23N 31°36' E 121°27'0 0.0
2018-Apr-06 09:59N 31°36' E 121°27'0 0.0
2018-Apr-06 09:29N 31°36' E 121°27'0 0.0
2018-Apr-06 08:59N 31°36' E 121°27'0 0.0
2018-Apr-06 08:29N 31°36' E 121°27'0 0.0
2018-Apr-06 07:59N 31°36' E 121°27'0 0.0
2018-Apr-06 07:29N 31°36' E 121°27'0 0.0
2018-Apr-06 06:59N 31°36' E 121°27'0 0.0
2018-Apr-06 06:29N 31°36' E 121°27'0 0.0
2018-Apr-06 05:59N 31°36' E 121°27'0 0.0
2018-Apr-06 05:29N 31°36' E 121°27'0 0.0
2018-Apr-06 04:59N 31°36' E 121°27'0 0.0
2018-Apr-06 04:26N 31°36' E 121°27'0 0.0
2018-Apr-06 03:59N 31°36' E 121°27'0 0.0
2018-Apr-06 03:29N 31°36' E 121°27'0 0.0
2018-Apr-06 02:59N 31°36' E 121°27'0 0.0
2018-Apr-06 02:29N 31°36' E 121°27'0 0.0
2018-Apr-06 01:59N 31°36' E 121°27'0 0.0
2018-Apr-06 01:29N 31°36' E 121°27'0 0.0
2018-Apr-06 00:59N 31°36' E 121°27'0 0.0
2018-Apr-06 00:29N 31°36' E 121°27'0 0.0
2018-Apr-05 23:59N 31°36' E 121°27'0 0.0
2018-Apr-05 23:29N 31°36' E 121°27'0 0.0
2018-Apr-05 22:59N 31°36' E 121°27'0 0.0
2018-Apr-05 22:29N 31°36' E 121°27'0 0.0
2018-Apr-05 21:59N 31°36' E 121°27'0 0.0
2018-Apr-05 21:29N 31°36' E 121°27'0 0.0
2018-Apr-05 20:59N 31°36' E 121°27'0 0.0
2018-Apr-05 20:29N 31°36' E 121°27'0 0.0
2018-Apr-05 19:59N 31°36' E 121°27'0 0.0
2018-Apr-05 19:29N 31°36' E 121°27'0 0.0
2018-Apr-05 18:59N 31°36' E 121°27'0 0.0
2018-Apr-05 18:29N 31°36' E 121°27'0 0.0
2018-Apr-05 17:59N 31°36' E 121°27'0 0.0
2018-Apr-05 17:29N 31°36' E 121°27'0 0.0
2018-Apr-05 16:59N 31°36' E 121°27'0 0.0
2018-Apr-05 16:29N 31°36' E 121°27'0 0.0
2018-Apr-05 15:59N 31°36' E 121°27'0 0.0
2018-Apr-05 15:29N 31°36' E 121°27'0 0.0
2018-Apr-05 14:59N 31°36' E 121°27'0 0.0
2018-Apr-05 14:29N 31°36' E 121°27'0 0.0
2018-Apr-05 13:59N 31°36' E 121°27'0 0.0
2018-Apr-05 13:29N 31°36' E 121°27'0 0.0
2018-Apr-05 12:59N 31°36' E 121°27'0 0.0
2018-Apr-05 12:29N 31°36' E 121°27'0 0.0
2018-Apr-05 11:59N 31°36' E 121°27'0 0.0
2018-Apr-05 11:29N 31°36' E 121°27'0 0.0
2018-Apr-05 10:59N 31°36' E 121°27'0 0.0
2018-Apr-05 10:29N 31°36' E 121°27'0 0.0
2018-Apr-05 09:59N 31°36' E 121°27'0 0.0
2018-Apr-05 09:29N 31°36' E 121°27'0 0.0
2018-Apr-05 08:59N 31°36' E 121°27'0 0.0
2018-Apr-05 08:29N 31°36' E 121°27'0 0.0
2018-Apr-05 07:59N 31°36' E 121°27'0 0.0
2018-Apr-05 07:29N 31°36' E 121°27'0 0.0
2018-Apr-05 06:59N 31°36' E 121°27'0 0.0
2018-Apr-05 06:29N 31°36' E 121°27'0 0.0
2018-Apr-05 05:59N 31°36' E 121°27'0 0.0
2018-Apr-05 05:29N 31°36' E 121°27'0 0.0
2018-Apr-05 04:56N 31°36' E 121°27'0 0.0
2018-Apr-05 04:29N 31°36' E 121°27'0 0.0
2018-Apr-05 03:59N 31°36' E 121°27'0 0.0
2018-Apr-05 03:23N 31°36' E 121°27'0 0.0
2018-Apr-05 02:59N 31°36' E 121°27'0 0.0
2018-Apr-05 02:29N 31°36' E 121°27'0 0.0
2018-Apr-05 01:59N 31°36' E 121°27'0 0.0
2018-Apr-05 01:29N 31°36' E 121°27'0 0.0
2018-Apr-05 00:59N 31°36' E 121°27'0 0.0
2018-Apr-05 00:29N 31°36' E 121°27'0 0.0
2018-Apr-04 23:59N 31°36' E 121°27'0 0.0
2018-Apr-04 23:29N 31°36' E 121°27'0 0.0
2018-Apr-04 22:59N 31°36' E 121°27'0 0.0
2018-Apr-04 22:29N 31°36' E 121°27'0 0.0
2018-Apr-04 21:59N 31°36' E 121°27'0 0.0
2018-Apr-04 21:29N 31°36' E 121°27'0 0.0
2018-Apr-04 20:59N 31°36' E 121°27'0 0.0
2018-Apr-04 20:29N 31°36' E 121°27'0 0.0
2018-Apr-04 19:59N 31°36' E 121°27'0 0.0
2018-Apr-04 19:29N 31°36' E 121°27'0 0.0
2018-Apr-04 18:59N 31°36' E 121°27'0 0.0
2018-Apr-04 18:29N 31°36' E 121°27'0 0.0
2018-Apr-04 17:59N 31°36' E 121°27'0 0.0
2018-Apr-04 17:29N 31°36' E 121°27'0 0.0
2018-Apr-04 16:59N 31°36' E 121°27'0 0.0
2018-Apr-04 16:23N 31°36' E 121°27'0 0.0
2018-Apr-04 15:59N 31°36' E 121°27'0 0.0
2018-Apr-04 15:29N 31°36' E 121°27'0 0.0
2018-Apr-04 14:59N 31°36' E 121°27'0 0.0
2018-Apr-04 14:26N 31°36' E 121°27'  

Dump ship's entire track history